sensor_id;sensor_type;location;lat;lon;timestamp;P1;durP1;ratioP1;P2;durP2;ratioP2
18176;SDS011;9213;50.858;3.964;2023-06-22T00:02:16;8.40;;;5.60;;
18176;SDS011;9213;50.858;3.964;2023-06-22T00:04:43;8.55;;;6.20;;
18176;SDS011;9213;50.858;3.964;2023-06-22T00:07:10;9.77;;;6.15;;
18176;SDS011;9213;50.858;3.964;2023-06-22T00:09:38;8.05;;;6.05;;
18176;SDS011;9213;50.858;3.964;2023-06-22T00:12:06;7.93;;;5.75;;
18176;SDS011;9213;50.858;3.964;2023-06-22T00:14:33;6.65;;;5.55;;
18176;SDS011;9213;50.858;3.964;2023-06-22T00:17:00;6.55;;;5.78;;
18176;SDS011;9213;50.858;3.964;2023-06-22T00:19:27;7.60;;;5.47;;
18176;SDS011;9213;50.858;3.964;2023-06-22T00:21:54;7.18;;;5.55;;
18176;SDS011;9213;50.858;3.964;2023-06-22T00:24:25;9.57;;;6.13;;
18176;SDS011;9213;50.858;3.964;2023-06-22T00:26:53;9.50;;;6.47;;
18176;SDS011;9213;50.858;3.964;2023-06-22T00:29:20;7.78;;;5.97;;
18176;SDS011;9213;50.858;3.964;2023-06-22T00:31:47;8.32;;;6.60;;
18176;SDS011;9213;50.858;3.964;2023-06-22T00:34:14;8.30;;;6.70;;
18176;SDS011;9213;50.858;3.964;2023-06-22T00:36:41;9.82;;;6.90;;
18176;SDS011;9213;50.858;3.964;2023-06-22T00:39:08;8.20;;;6.13;;
18176;SDS011;9213;50.858;3.964;2023-06-22T00:41:36;8.60;;;6.38;;
18176;SDS011;9213;50.858;3.964;2023-06-22T00:44:04;8.93;;;6.28;;
18176;SDS011;9213;50.858;3.964;2023-06-22T00:46:31;7.65;;;6.22;;
18176;SDS011;9213;50.858;3.964;2023-06-22T00:48:59;7.95;;;6.35;;
18176;SDS011;9213;50.858;3.964;2023-06-22T00:51:26;9.30;;;7.28;;
18176;SDS011;9213;50.858;3.964;2023-06-22T00:53:53;11.13;;;6.88;;
18176;SDS011;9213;50.858;3.964;2023-06-22T00:56:21;11.77;;;7.30;;
18176;SDS011;9213;50.858;3.964;2023-06-22T00:58:50;7.93;;;6.60;;
18176;SDS011;9213;50.858;3.964;2023-06-22T01:01:20;9.60;;;6.95;;
18176;SDS011;9213;50.858;3.964;2023-06-22T01:03:48;7.05;;;6.30;;
18176;SDS011;9213;50.858;3.964;2023-06-22T01:06:18;9.40;;;6.88;;
18176;SDS011;9213;50.858;3.964;2023-06-22T01:08:53;10.32;;;6.80;;
18176;SDS011;9213;50.858;3.964;2023-06-22T01:11:28;12.65;;;7.03;;
18176;SDS011;9213;50.858;3.964;2023-06-22T01:14:01;9.00;;;6.80;;
18176;SDS011;9213;50.858;3.964;2023-06-22T01:16:35;10.00;;;7.22;;
18176;SDS011;9213;50.858;3.964;2023-06-22T01:19:08;8.88;;;6.03;;
18176;SDS011;9213;50.858;3.964;2023-06-22T01:21:44;9.38;;;6.95;;
18176;SDS011;9213;50.858;3.964;2023-06-22T01:24:15;11.27;;;6.95;;
18176;SDS011;9213;50.858;3.964;2023-06-22T01:26:51;11.73;;;6.57;;
18176;SDS011;9213;50.858;3.964;2023-06-22T01:29:27;8.20;;;6.22;;
18176;SDS011;9213;50.858;3.964;2023-06-22T01:31:55;9.13;;;6.70;;
18176;SDS011;9213;50.858;3.964;2023-06-22T01:34:23;10.35;;;6.53;;
18176;SDS011;9213;50.858;3.964;2023-06-22T01:36:51;8.93;;;6.97;;
18176;SDS011;9213;50.858;3.964;2023-06-22T01:39:18;11.00;;;7.78;;
18176;SDS011;9213;50.858;3.964;2023-06-22T01:41:47;11.90;;;7.72;;
18176;SDS011;9213;50.858;3.964;2023-06-22T01:44:14;11.48;;;7.93;;
18176;SDS011;9213;50.858;3.964;2023-06-22T01:46:43;9.63;;;7.90;;
18176;SDS011;9213;50.858;3.964;2023-06-22T01:49:11;10.15;;;7.78;;
18176;SDS011;9213;50.858;3.964;2023-06-22T01:51:38;10.23;;;8.15;;
18176;SDS011;9213;50.858;3.964;2023-06-22T01:54:05;11.20;;;8.40;;
18176;SDS011;9213;50.858;3.964;2023-06-22T01:56:33;12.52;;;8.07;;
18176;SDS011;9213;50.858;3.964;2023-06-22T01:59:01;9.82;;;7.28;;
18176;SDS011;9213;50.858;3.964;2023-06-22T02:01:36;12.32;;;7.80;;
18176;SDS011;9213;50.858;3.964;2023-06-22T02:04:11;10.23;;;7.72;;
18176;SDS011;9213;50.858;3.964;2023-06-22T02:06:43;14.57;;;8.30;;
18176;SDS011;9213;50.858;3.964;2023-06-22T02:09:14;9.95;;;7.72;;
18176;SDS011;9213;50.858;3.964;2023-06-22T02:11:44;11.07;;;8.32;;
18176;SDS011;9213;50.858;3.964;2023-06-22T02:14:13;10.13;;;7.70;;
18176;SDS011;9213;50.858;3.964;2023-06-22T02:16:41;13.02;;;8.63;;
18176;SDS011;9213;50.858;3.964;2023-06-22T02:19:10;11.27;;;7.70;;
18176;SDS011;9213;50.858;3.964;2023-06-22T02:21:37;12.63;;;8.45;;
18176;SDS011;9213;50.858;3.964;2023-06-22T02:24:04;11.77;;;8.73;;
18176;SDS011;9213;50.858;3.964;2023-06-22T02:26:31;11.45;;;8.57;;
18176;SDS011;9213;50.858;3.964;2023-06-22T02:28:59;13.80;;;9.38;;
18176;SDS011;9213;50.858;3.964;2023-06-22T02:31:26;12.80;;;8.80;;
18176;SDS011;9213;50.858;3.964;2023-06-22T02:33:55;12.20;;;8.77;;
18176;SDS011;9213;50.858;3.964;2023-06-22T02:36:24;13.82;;;9.32;;
18176;SDS011;9213;50.858;3.964;2023-06-22T02:38:52;11.57;;;9.05;;
18176;SDS011;9213;50.858;3.964;2023-06-22T02:41:19;11.85;;;8.75;;
18176;SDS011;9213;50.858;3.964;2023-06-22T02:43:46;13.88;;;8.88;;
18176;SDS011;9213;50.858;3.964;2023-06-22T02:46:13;11.90;;;9.15;;
18176;SDS011;9213;50.858;3.964;2023-06-22T02:48:40;12.15;;;9.70;;
18176;SDS011;9213;50.858;3.964;2023-06-22T02:51:07;13.02;;;9.98;;
18176;SDS011;9213;50.858;3.964;2023-06-22T02:53:36;14.18;;;9.90;;
18176;SDS011;9213;50.858;3.964;2023-06-22T02:56:03;15.20;;;10.15;;
18176;SDS011;9213;50.858;3.964;2023-06-22T02:58:31;14.68;;;10.23;;
18176;SDS011;9213;50.858;3.964;2023-06-22T03:01:04;13.57;;;9.57;;
18176;SDS011;9213;50.858;3.964;2023-06-22T03:03:31;14.55;;;10.00;;
18176;SDS011;9213;50.858;3.964;2023-06-22T03:05:58;13.90;;;9.93;;
18176;SDS011;9213;50.858;3.964;2023-06-22T03:08:27;16.50;;;9.75;;
18176;SDS011;9213;50.858;3.964;2023-06-22T03:10:55;13.63;;;9.65;;
18176;SDS011;9213;50.858;3.964;2023-06-22T03:13:22;14.40;;;9.65;;
18176;SDS011;9213;50.858;3.964;2023-06-22T03:15:49;14.45;;;11.20;;
18176;SDS011;9213;50.858;3.964;2023-06-22T03:18:16;12.52;;;10.45;;
18176;SDS011;9213;50.858;3.964;2023-06-22T03:20:43;15.52;;;10.25;;
18176;SDS011;9213;50.858;3.964;2023-06-22T03:23:10;13.80;;;10.23;;
18176;SDS011;9213;50.858;3.964;2023-06-22T03:25:37;15.70;;;10.38;;
18176;SDS011;9213;50.858;3.964;2023-06-22T03:28:05;12.90;;;10.48;;
18176;SDS011;9213;50.858;3.964;2023-06-22T03:30:32;13.02;;;10.98;;
18176;SDS011;9213;50.858;3.964;2023-06-22T03:32:59;16.65;;;11.65;;
18176;SDS011;9213;50.858;3.964;2023-06-22T03:35:26;13.77;;;10.93;;
18176;SDS011;9213;50.858;3.964;2023-06-22T03:37:53;18.90;;;11.23;;
18176;SDS011;9213;50.858;3.964;2023-06-22T03:40:20;15.63;;;11.47;;
18176;SDS011;9213;50.858;3.964;2023-06-22T03:42:47;15.68;;;11.20;;
18176;SDS011;9213;50.858;3.964;2023-06-22T03:45:15;15.93;;;10.80;;
18176;SDS011;9213;50.858;3.964;2023-06-22T03:47:42;15.03;;;10.97;;
18176;SDS011;9213;50.858;3.964;2023-06-22T03:50:09;14.32;;;9.85;;
18176;SDS011;9213;50.858;3.964;2023-06-22T03:52:36;15.85;;;10.30;;
18176;SDS011;9213;50.858;3.964;2023-06-22T03:55:04;13.57;;;10.38;;
18176;SDS011;9213;50.858;3.964;2023-06-22T03:57:31;13.60;;;9.75;;
18176;SDS011;9213;50.858;3.964;2023-06-22T03:59:58;16.48;;;10.57;;
18176;SDS011;9213;50.858;3.964;2023-06-22T04:02:27;13.48;;;10.05;;
18176;SDS011;9213;50.858;3.964;2023-06-22T04:04:54;12.77;;;10.18;;
18176;SDS011;9213;50.858;3.964;2023-06-22T04:07:21;12.65;;;10.40;;
18176;SDS011;9213;50.858;3.964;2023-06-22T04:09:47;15.93;;;9.77;;
18176;SDS011;9213;50.858;3.964;2023-06-22T04:12:14;14.77;;;9.67;;
18176;SDS011;9213;50.858;3.964;2023-06-22T04:14:41;18.17;;;10.00;;
18176;SDS011;9213;50.858;3.964;2023-06-22T04:17:08;16.92;;;10.10;;
18176;SDS011;9213;50.858;3.964;2023-06-22T04:19:36;14.07;;;10.48;;
18176;SDS011;9213;50.858;3.964;2023-06-22T04:22:03;15.23;;;10.00;;
18176;SDS011;9213;50.858;3.964;2023-06-22T04:24:32;13.15;;;10.48;;
18176;SDS011;9213;50.858;3.964;2023-06-22T04:26:59;13.15;;;9.77;;
18176;SDS011;9213;50.858;3.964;2023-06-22T04:29:27;12.02;;;9.95;;
18176;SDS011;9213;50.858;3.964;2023-06-22T04:31:55;14.13;;;9.90;;
18176;SDS011;9213;50.858;3.964;2023-06-22T04:34:23;13.02;;;9.57;;
18176;SDS011;9213;50.858;3.964;2023-06-22T04:36:52;11.43;;;9.00;;
18176;SDS011;9213;50.858;3.964;2023-06-22T04:39:19;12.40;;;9.35;;
18176;SDS011;9213;50.858;3.964;2023-06-22T04:41:47;10.30;;;8.77;;
18176;SDS011;9213;50.858;3.964;2023-06-22T04:44:14;11.32;;;8.90;;
18176;SDS011;9213;50.858;3.964;2023-06-22T04:46:49;11.98;;;9.27;;
18176;SDS011;9213;50.858;3.964;2023-06-22T04:49:19;11.90;;;9.23;;
18176;SDS011;9213;50.858;3.964;2023-06-22T04:51:47;12.82;;;9.73;;
18176;SDS011;9213;50.858;3.964;2023-06-22T04:54:15;12.88;;;8.95;;
18176;SDS011;9213;50.858;3.964;2023-06-22T04:56:42;13.98;;;9.07;;
18176;SDS011;9213;50.858;3.964;2023-06-22T04:59:11;11.60;;;8.80;;
18176;SDS011;9213;50.858;3.964;2023-06-22T05:01:39;12.38;;;8.77;;
18176;SDS011;9213;50.858;3.964;2023-06-22T05:04:06;13.18;;;8.90;;
18176;SDS011;9213;50.858;3.964;2023-06-22T05:06:32;11.57;;;9.30;;
18176;SDS011;9213;50.858;3.964;2023-06-22T05:08:59;11.00;;;8.57;;
18176;SDS011;9213;50.858;3.964;2023-06-22T05:11:29;10.52;;;8.82;;
18176;SDS011;9213;50.858;3.964;2023-06-22T05:13:56;10.73;;;8.95;;
18176;SDS011;9213;50.858;3.964;2023-06-22T05:16:23;13.95;;;9.30;;
18176;SDS011;9213;50.858;3.964;2023-06-22T05:18:51;10.80;;;8.75;;
18176;SDS011;9213;50.858;3.964;2023-06-22T05:21:21;13.30;;;9.05;;
18176;SDS011;9213;50.858;3.964;2023-06-22T05:23:49;11.52;;;8.82;;
18176;SDS011;9213;50.858;3.964;2023-06-22T05:26:16;12.63;;;8.73;;
18176;SDS011;9213;50.858;3.964;2023-06-22T05:28:44;11.35;;;8.90;;
18176;SDS011;9213;50.858;3.964;2023-06-22T05:31:12;11.98;;;9.07;;
18176;SDS011;9213;50.858;3.964;2023-06-22T05:33:39;13.77;;;9.68;;
18176;SDS011;9213;50.858;3.964;2023-06-22T05:36:06;12.05;;;9.27;;
18176;SDS011;9213;50.858;3.964;2023-06-22T05:38:34;13.13;;;9.52;;
18176;SDS011;9213;50.858;3.964;2023-06-22T05:41:01;10.27;;;8.93;;
18176;SDS011;9213;50.858;3.964;2023-06-22T05:43:28;12.68;;;9.68;;
18176;SDS011;9213;50.858;3.964;2023-06-22T05:45:56;11.07;;;9.20;;
18176;SDS011;9213;50.858;3.964;2023-06-22T05:48:23;12.65;;;9.43;;
18176;SDS011;9213;50.858;3.964;2023-06-22T05:50:50;12.23;;;9.88;;
18176;SDS011;9213;50.858;3.964;2023-06-22T05:53:17;15.55;;;9.43;;
18176;SDS011;9213;50.858;3.964;2023-06-22T05:55:44;16.42;;;9.48;;
18176;SDS011;9213;50.858;3.964;2023-06-22T05:58:11;14.93;;;10.88;;
18176;SDS011;9213;50.858;3.964;2023-06-22T06:00:38;15.18;;;10.07;;
18176;SDS011;9213;50.858;3.964;2023-06-22T06:03:06;12.55;;;9.95;;
18176;SDS011;9213;50.858;3.964;2023-06-22T06:05:34;13.13;;;10.35;;
18176;SDS011;9213;50.858;3.964;2023-06-22T06:08:01;14.27;;;10.73;;
18176;SDS011;9213;50.858;3.964;2023-06-22T06:10:31;16.05;;;11.43;;
18176;SDS011;9213;50.858;3.964;2023-06-22T06:12:58;17.50;;;11.23;;
18176;SDS011;9213;50.858;3.964;2023-06-22T06:15:27;14.63;;;11.25;;
18176;SDS011;9213;50.858;3.964;2023-06-22T06:17:53;14.85;;;11.13;;
18176;SDS011;9213;50.858;3.964;2023-06-22T06:20:22;15.27;;;11.50;;
18176;SDS011;9213;50.858;3.964;2023-06-22T06:22:50;15.07;;;11.50;;
18176;SDS011;9213;50.858;3.964;2023-06-22T06:25:17;14.55;;;11.18;;
18176;SDS011;9213;50.858;3.964;2023-06-22T06:27:46;13.27;;;11.30;;
18176;SDS011;9213;50.858;3.964;2023-06-22T06:30:15;15.77;;;12.70;;
18176;SDS011;9213;50.858;3.964;2023-06-22T06:32:43;17.67;;;11.98;;
18176;SDS011;9213;50.858;3.964;2023-06-22T06:35:12;16.02;;;12.68;;
18176;SDS011;9213;50.858;3.964;2023-06-22T06:37:41;17.25;;;12.68;;
18176;SDS011;9213;50.858;3.964;2023-06-22T06:40:10;15.43;;;12.25;;
18176;SDS011;9213;50.858;3.964;2023-06-22T06:42:38;15.68;;;12.65;;
18176;SDS011;9213;50.858;3.964;2023-06-22T06:45:07;16.08;;;12.63;;
18176;SDS011;9213;50.858;3.964;2023-06-22T06:47:34;16.73;;;13.30;;
18176;SDS011;9213;50.858;3.964;2023-06-22T06:50:01;15.55;;;13.85;;
18176;SDS011;9213;50.858;3.964;2023-06-22T06:52:29;16.25;;;12.95;;
18176;SDS011;9213;50.858;3.964;2023-06-22T06:54:57;16.83;;;12.88;;
18176;SDS011;9213;50.858;3.964;2023-06-22T06:57:24;17.42;;;13.30;;
18176;SDS011;9213;50.858;3.964;2023-06-22T06:59:54;17.77;;;12.73;;
18176;SDS011;9213;50.858;3.964;2023-06-22T07:02:22;17.08;;;13.00;;
18176;SDS011;9213;50.858;3.964;2023-06-22T07:04:49;17.67;;;12.95;;
18176;SDS011;9213;50.858;3.964;2023-06-22T07:07:16;17.88;;;13.13;;
18176;SDS011;9213;50.858;3.964;2023-06-22T07:09:43;17.42;;;13.48;;
18176;SDS011;9213;50.858;3.964;2023-06-22T07:12:11;16.55;;;13.50;;
18176;SDS011;9213;50.858;3.964;2023-06-22T07:14:38;18.45;;;13.90;;
18176;SDS011;9213;50.858;3.964;2023-06-22T07:17:05;17.90;;;13.32;;
18176;SDS011;9213;50.858;3.964;2023-06-22T07:19:32;18.60;;;14.25;;
18176;SDS011;9213;50.858;3.964;2023-06-22T07:21:59;16.33;;;13.82;;
18176;SDS011;9213;50.858;3.964;2023-06-22T07:24:26;16.17;;;13.30;;
18176;SDS011;9213;50.858;3.964;2023-06-22T07:26:53;18.70;;;14.50;;
18176;SDS011;9213;50.858;3.964;2023-06-22T07:29:25;18.58;;;14.45;;
18176;SDS011;9213;50.858;3.964;2023-06-22T07:31:52;15.25;;;13.45;;
18176;SDS011;9213;50.858;3.964;2023-06-22T07:34:21;18.15;;;15.23;;
18176;SDS011;9213;50.858;3.964;2023-06-22T07:36:48;18.42;;;15.40;;
18176;SDS011;9213;50.858;3.964;2023-06-22T07:39:15;18.40;;;15.00;;
18176;SDS011;9213;50.858;3.964;2023-06-22T07:41:42;17.42;;;14.05;;
18176;SDS011;9213;50.858;3.964;2023-06-22T07:44:09;19.10;;;14.63;;
18176;SDS011;9213;50.858;3.964;2023-06-22T07:46:37;17.30;;;14.15;;
18176;SDS011;9213;50.858;3.964;2023-06-22T07:49:04;18.58;;;15.40;;
18176;SDS011;9213;50.858;3.964;2023-06-22T07:51:33;19.95;;;14.80;;
18176;SDS011;9213;50.858;3.964;2023-06-22T07:54:00;19.10;;;16.08;;
18176;SDS011;9213;50.858;3.964;2023-06-22T07:56:27;18.15;;;15.15;;
18176;SDS011;9213;50.858;3.964;2023-06-22T07:58:54;18.25;;;14.38;;
18176;SDS011;9213;50.858;3.964;2023-06-22T08:01:23;16.80;;;14.93;;
18176;SDS011;9213;50.858;3.964;2023-06-22T08:03:51;22.02;;;16.08;;
18176;SDS011;9213;50.858;3.964;2023-06-22T08:06:18;18.75;;;15.23;;
18176;SDS011;9213;50.858;3.964;2023-06-22T08:08:45;21.75;;;15.80;;
18176;SDS011;9213;50.858;3.964;2023-06-22T08:11:14;18.38;;;15.27;;
18176;SDS011;9213;50.858;3.964;2023-06-22T08:13:41;23.73;;;16.98;;
18176;SDS011;9213;50.858;3.964;2023-06-22T08:16:08;24.08;;;16.45;;
18176;SDS011;9213;50.858;3.964;2023-06-22T08:18:35;18.75;;;15.98;;
18176;SDS011;9213;50.858;3.964;2023-06-22T08:21:04;20.25;;;16.25;;
18176;SDS011;9213;50.858;3.964;2023-06-22T08:23:31;25.55;;;17.15;;
18176;SDS011;9213;50.858;3.964;2023-06-22T08:25:58;22.02;;;17.35;;
18176;SDS011;9213;50.858;3.964;2023-06-22T08:28:25;20.30;;;16.73;;
18176;SDS011;9213;50.858;3.964;2023-06-22T08:30:52;21.67;;;17.48;;
18176;SDS011;9213;50.858;3.964;2023-06-22T08:33:20;19.40;;;17.40;;
18176;SDS011;9213;50.858;3.964;2023-06-22T08:35:53;19.85;;;17.60;;
18176;SDS011;9213;50.858;3.964;2023-06-22T08:38:21;23.52;;;17.98;;
18176;SDS011;9213;50.858;3.964;2023-06-22T08:40:48;22.65;;;18.63;;
18176;SDS011;9213;50.858;3.964;2023-06-22T08:43:15;22.83;;;18.40;;
18176;SDS011;9213;50.858;3.964;2023-06-22T08:45:42;22.85;;;19.00;;
18176;SDS011;9213;50.858;3.964;2023-06-22T08:48:09;24.73;;;18.65;;
18176;SDS011;9213;50.858;3.964;2023-06-22T08:50:36;22.17;;;18.30;;
18176;SDS011;9213;50.858;3.964;2023-06-22T08:53:03;25.70;;;19.73;;
18176;SDS011;9213;50.858;3.964;2023-06-22T08:55:33;25.92;;;19.77;;
18176;SDS011;9213;50.858;3.964;2023-06-22T08:58:00;24.20;;;19.88;;
18176;SDS011;9213;50.858;3.964;2023-06-22T09:00:27;25.02;;;20.88;;
18176;SDS011;9213;50.858;3.964;2023-06-22T09:02:57;25.30;;;20.80;;
18176;SDS011;9213;50.858;3.964;2023-06-22T09:05:24;27.70;;;22.77;;
18176;SDS011;9213;50.858;3.964;2023-06-22T09:07:52;27.65;;;22.95;;
18176;SDS011;9213;50.858;3.964;2023-06-22T09:10:19;28.27;;;22.85;;
18176;SDS011;9213;50.858;3.964;2023-06-22T09:12:48;27.38;;;22.40;;
18176;SDS011;9213;50.858;3.964;2023-06-22T09:15:15;28.95;;;22.25;;
18176;SDS011;9213;50.858;3.964;2023-06-22T09:17:42;26.30;;;22.98;;
18176;SDS011;9213;50.858;3.964;2023-06-22T09:20:11;28.38;;;24.20;;
18176;SDS011;9213;50.858;3.964;2023-06-22T09:22:38;27.60;;;23.95;;
18176;SDS011;9213;50.858;3.964;2023-06-22T09:25:06;31.10;;;24.25;;
18176;SDS011;9213;50.858;3.964;2023-06-22T09:27:33;28.73;;;25.00;;
18176;SDS011;9213;50.858;3.964;2023-06-22T09:30:01;29.17;;;24.42;;
18176;SDS011;9213;50.858;3.964;2023-06-22T09:32:28;29.40;;;25.02;;
18176;SDS011;9213;50.858;3.964;2023-06-22T09:34:55;33.22;;;25.98;;
18176;SDS011;9213;50.858;3.964;2023-06-22T09:37:22;29.15;;;25.35;;
18176;SDS011;9213;50.858;3.964;2023-06-22T09:39:49;30.15;;;26.05;;
18176;SDS011;9213;50.858;3.964;2023-06-22T09:42:16;30.25;;;26.95;;
18176;SDS011;9213;50.858;3.964;2023-06-22T09:44:43;32.30;;;27.30;;
18176;SDS011;9213;50.858;3.964;2023-06-22T09:47:11;37.55;;;27.75;;
18176;SDS011;9213;50.858;3.964;2023-06-22T09:49:38;33.00;;;28.55;;
18176;SDS011;9213;50.858;3.964;2023-06-22T09:52:05;34.88;;;28.23;;
18176;SDS011;9213;50.858;3.964;2023-06-22T09:54:33;36.30;;;28.40;;
18176;SDS011;9213;50.858;3.964;2023-06-22T09:57:00;46.78;;;32.45;;
18176;SDS011;9213;50.858;3.964;2023-06-22T09:59:27;43.75;;;33.88;;
18176;SDS011;9213;50.858;3.964;2023-06-22T10:01:54;40.08;;;32.28;;
18176;SDS011;9213;50.858;3.964;2023-06-22T10:04:22;51.40;;;36.10;;
18176;SDS011;9213;50.858;3.964;2023-06-22T10:06:49;60.53;;;37.38;;
18176;SDS011;9213;50.858;3.964;2023-06-22T10:09:16;59.38;;;40.08;;
18176;SDS011;9213;50.858;3.964;2023-06-22T10:11:43;53.53;;;37.78;;
18176;SDS011;9213;50.858;3.964;2023-06-22T10:14:10;57.45;;;40.30;;
18176;SDS011;9213;50.858;3.964;2023-06-22T10:16:37;62.40;;;41.35;;
18176;SDS011;9213;50.858;3.964;2023-06-22T10:19:06;61.28;;;42.58;;
18176;SDS011;9213;50.858;3.964;2023-06-22T10:21:34;70.50;;;43.47;;
18176;SDS011;9213;50.858;3.964;2023-06-22T10:24:01;74.10;;;46.60;;
18176;SDS011;9213;50.858;3.964;2023-06-22T10:26:31;75.10;;;46.30;;
18176;SDS011;9213;50.858;3.964;2023-06-22T10:28:58;74.00;;;44.33;;
18176;SDS011;9213;50.858;3.964;2023-06-22T10:31:25;78.65;;;48.63;;
18176;SDS011;9213;50.858;3.964;2023-06-22T10:33:52;85.18;;;50.90;;
18176;SDS011;9213;50.858;3.964;2023-06-22T10:36:20;67.28;;;42.70;;
18176;SDS011;9213;50.858;3.964;2023-06-22T10:38:49;82.05;;;46.88;;
18176;SDS011;9213;50.858;3.964;2023-06-22T10:41:17;59.20;;;39.00;;
18176;SDS011;9213;50.858;3.964;2023-06-22T10:43:44;55.65;;;36.45;;
18176;SDS011;9213;50.858;3.964;2023-06-22T10:46:11;49.38;;;34.17;;
18176;SDS011;9213;50.858;3.964;2023-06-22T10:48:39;39.22;;;29.75;;
18176;SDS011;9213;50.858;3.964;2023-06-22T10:51:05;44.88;;;30.58;;
18176;SDS011;9213;50.858;3.964;2023-06-22T10:53:32;46.60;;;30.30;;
18176;SDS011;9213;50.858;3.964;2023-06-22T10:56:01;47.70;;;31.80;;
18176;SDS011;9213;50.858;3.964;2023-06-22T10:58:27;37.92;;;27.88;;
18176;SDS011;9213;50.858;3.964;2023-06-22T11:00:54;47.42;;;32.13;;
18176;SDS011;9213;50.858;3.964;2023-06-22T11:03:21;60.22;;;35.47;;
18176;SDS011;9213;50.858;3.964;2023-06-22T11:05:48;59.42;;;35.38;;
18176;SDS011;9213;50.858;3.964;2023-06-22T11:08:15;48.55;;;33.00;;
18176;SDS011;9213;50.858;3.964;2023-06-22T11:10:42;70.57;;;38.22;;
18176;SDS011;9213;50.858;3.964;2023-06-22T11:13:11;62.90;;;38.03;;
18176;SDS011;9213;50.858;3.964;2023-06-22T11:15:38;56.60;;;36.97;;
18176;SDS011;9213;50.858;3.964;2023-06-22T11:18:05;55.88;;;37.92;;
18176;SDS011;9213;50.858;3.964;2023-06-22T11:20:32;56.67;;;38.30;;
18176;SDS011;9213;50.858;3.964;2023-06-22T11:23:03;47.20;;;33.83;;
18176;SDS011;9213;50.858;3.964;2023-06-22T11:25:30;42.03;;;30.65;;
18176;SDS011;9213;50.858;3.964;2023-06-22T11:27:57;41.03;;;30.42;;
18176;SDS011;9213;50.858;3.964;2023-06-22T11:30:25;39.65;;;30.65;;
18176;SDS011;9213;50.858;3.964;2023-06-22T11:32:52;42.90;;;30.63;;
18176;SDS011;9213;50.858;3.964;2023-06-22T11:35:19;44.90;;;31.30;;
18176;SDS011;9213;50.858;3.964;2023-06-22T11:37:46;45.22;;;32.22;;
18176;SDS011;9213;50.858;3.964;2023-06-22T11:40:13;45.05;;;32.83;;
18176;SDS011;9213;50.858;3.964;2023-06-22T11:42:40;53.15;;;35.70;;
18176;SDS011;9213;50.858;3.964;2023-06-22T11:45:07;52.38;;;36.30;;
18176;SDS011;9213;50.858;3.964;2023-06-22T11:47:36;51.15;;;35.38;;
18176;SDS011;9213;50.858;3.964;2023-06-22T11:50:04;48.22;;;34.80;;
18176;SDS011;9213;50.858;3.964;2023-06-22T11:52:33;57.28;;;38.25;;
18176;SDS011;9213;50.858;3.964;2023-06-22T11:55:01;49.67;;;35.13;;
18176;SDS011;9213;50.858;3.964;2023-06-22T11:57:30;53.47;;;35.83;;
18176;SDS011;9213;50.858;3.964;2023-06-22T11:59:58;47.60;;;34.10;;
18176;SDS011;9213;50.858;3.964;2023-06-22T12:02:25;40.05;;;30.65;;
18176;SDS011;9213;50.858;3.964;2023-06-22T12:04:54;36.35;;;27.08;;
18176;SDS011;9213;50.858;3.964;2023-06-22T12:07:23;35.35;;;26.52;;
18176;SDS011;9213;50.858;3.964;2023-06-22T12:09:50;39.10;;;28.65;;
18176;SDS011;9213;50.858;3.964;2023-06-22T12:12:17;34.80;;;28.25;;
18176;SDS011;9213;50.858;3.964;2023-06-22T12:14:44;40.03;;;28.30;;
18176;SDS011;9213;50.858;3.964;2023-06-22T12:17:11;43.85;;;28.33;;
18176;SDS011;9213;50.858;3.964;2023-06-22T12:19:38;36.20;;;27.23;;
18176;SDS011;9213;50.858;3.964;2023-06-22T12:22:06;35.42;;;27.38;;
18176;SDS011;9213;50.858;3.964;2023-06-22T12:24:33;40.53;;;30.42;;
18176;SDS011;9213;50.858;3.964;2023-06-22T12:27:00;39.35;;;27.88;;
18176;SDS011;9213;50.858;3.964;2023-06-22T12:29:28;43.70;;;31.15;;
18176;SDS011;9213;50.858;3.964;2023-06-22T12:31:55;48.95;;;32.58;;
18176;SDS011;9213;50.858;3.964;2023-06-22T12:34:22;52.20;;;34.38;;
18176;SDS011;9213;50.858;3.964;2023-06-22T12:36:49;43.58;;;30.63;;
18176;SDS011;9213;50.858;3.964;2023-06-22T12:39:17;48.47;;;33.72;;
18176;SDS011;9213;50.858;3.964;2023-06-22T12:41:44;55.65;;;34.22;;
18176;SDS011;9213;50.858;3.964;2023-06-22T12:44:11;50.15;;;33.25;;
18176;SDS011;9213;50.858;3.964;2023-06-22T12:46:38;50.88;;;34.03;;
18176;SDS011;9213;50.858;3.964;2023-06-22T12:49:05;54.53;;;32.13;;
18176;SDS011;9213;50.858;3.964;2023-06-22T12:51:32;43.00;;;27.50;;
18176;SDS011;9213;50.858;3.964;2023-06-22T12:53:59;41.28;;;26.50;;
18176;SDS011;9213;50.858;3.964;2023-06-22T12:56:27;46.38;;;26.08;;
18176;SDS011;9213;50.858;3.964;2023-06-22T12:58:54;37.70;;;23.48;;
18176;SDS011;9213;50.858;3.964;2023-06-22T13:01:21;41.08;;;24.77;;
18176;SDS011;9213;50.858;3.964;2023-06-22T13:03:48;44.80;;;24.95;;
18176;SDS011;9213;50.858;3.964;2023-06-22T13:06:14;40.97;;;25.45;;
18176;SDS011;9213;50.858;3.964;2023-06-22T13:08:41;42.13;;;23.67;;
18176;SDS011;9213;50.858;3.964;2023-06-22T13:11:08;43.65;;;25.50;;
18176;SDS011;9213;50.858;3.964;2023-06-22T13:13:37;43.17;;;24.13;;
18176;SDS011;9213;50.858;3.964;2023-06-22T13:16:04;45.60;;;26.85;;
18176;SDS011;9213;50.858;3.964;2023-06-22T13:18:31;45.17;;;28.63;;
18176;SDS011;9213;50.858;3.964;2023-06-22T13:20:59;41.88;;;27.02;;
18176;SDS011;9213;50.858;3.964;2023-06-22T13:23:26;45.80;;;28.75;;
18176;SDS011;9213;50.858;3.964;2023-06-22T13:25:53;42.97;;;27.45;;
18176;SDS011;9213;50.858;3.964;2023-06-22T13:28:20;36.30;;;24.83;;
18176;SDS011;9213;50.858;3.964;2023-06-22T13:30:48;42.78;;;27.80;;
18176;SDS011;9213;50.858;3.964;2023-06-22T13:33:15;49.10;;;29.17;;
18176;SDS011;9213;50.858;3.964;2023-06-22T13:35:42;46.60;;;29.42;;
18176;SDS011;9213;50.858;3.964;2023-06-22T13:38:10;55.53;;;30.93;;
18176;SDS011;9213;50.858;3.964;2023-06-22T13:40:37;54.50;;;31.75;;
18176;SDS011;9213;50.858;3.964;2023-06-22T13:43:04;58.70;;;34.63;;
18176;SDS011;9213;50.858;3.964;2023-06-22T13:45:31;57.22;;;32.22;;
18176;SDS011;9213;50.858;3.964;2023-06-22T13:48:00;52.80;;;31.73;;
18176;SDS011;9213;50.858;3.964;2023-06-22T13:50:27;48.95;;;31.08;;
18176;SDS011;9213;50.858;3.964;2023-06-22T13:52:55;65.88;;;35.45;;
18176;SDS011;9213;50.858;3.964;2023-06-22T13:55:22;62.45;;;36.80;;
18176;SDS011;9213;50.858;3.964;2023-06-22T13:57:49;59.10;;;35.53;;
18176;SDS011;9213;50.858;3.964;2023-06-22T14:00:17;57.67;;;33.42;;
18176;SDS011;9213;50.858;3.964;2023-06-22T14:02:44;63.92;;;35.10;;
18176;SDS011;9213;50.858;3.964;2023-06-22T14:05:12;62.67;;;34.70;;
18176;SDS011;9213;50.858;3.964;2023-06-22T14:07:39;60.35;;;33.55;;
18176;SDS011;9213;50.858;3.964;2023-06-22T14:10:06;53.75;;;32.28;;
18176;SDS011;9213;50.858;3.964;2023-06-22T14:12:34;57.22;;;32.20;;
18176;SDS011;9213;50.858;3.964;2023-06-22T14:15:01;64.53;;;35.97;;
18176;SDS011;9213;50.858;3.964;2023-06-22T14:17:28;50.90;;;31.95;;
18176;SDS011;9213;50.858;3.964;2023-06-22T14:19:54;47.97;;;29.20;;
18176;SDS011;9213;50.858;3.964;2023-06-22T14:22:23;52.03;;;32.40;;
18176;SDS011;9213;50.858;3.964;2023-06-22T14:24:50;65.95;;;35.80;;
18176;SDS011;9213;50.858;3.964;2023-06-22T14:27:17;57.78;;;34.10;;
18176;SDS011;9213;50.858;3.964;2023-06-22T14:29:44;53.15;;;32.22;;
18176;SDS011;9213;50.858;3.964;2023-06-22T14:32:11;54.28;;;32.10;;
18176;SDS011;9213;50.858;3.964;2023-06-22T14:34:38;48.92;;;28.80;;
18176;SDS011;9213;50.858;3.964;2023-06-22T14:37:05;48.83;;;30.48;;
18176;SDS011;9213;50.858;3.964;2023-06-22T14:39:36;51.03;;;32.78;;
18176;SDS011;9213;50.858;3.964;2023-06-22T14:42:03;46.03;;;31.63;;
18176;SDS011;9213;50.858;3.964;2023-06-22T14:44:30;53.60;;;34.67;;